sensor_id;sensor_type;location;lat;lon;timestamp;pressure;altitude;pressure_sealevel;temperature;humidity
34921;BME280;21128;50.016;20.002;2023-07-13T00:01:54;98524.88;;;22.24;78.65
34921;BME280;21128;50.016;20.002;2023-07-13T00:04:23;98534.41;;;22.20;78.89
34921;BME280;21128;50.016;20.002;2023-07-13T00:06:52;98525.77;;;22.18;78.64
34921;BME280;21128;50.016;20.002;2023-07-13T00:09:20;98534.02;;;22.16;79.28
34921;BME280;21128;50.016;20.002;2023-07-13T00:11:57;98530.17;;;22.12;79.94
34921;BME280;21128;50.016;20.002;2023-07-13T00:14:26;98538.46;;;22.04;81.37
34921;BME280;21128;50.016;20.002;2023-07-13T00:16:54;98534.88;;;21.92;82.04
34921;BME280;21128;50.016;20.002;2023-07-13T00:19:21;98534.80;;;21.80;83.75
34921;BME280;21128;50.016;20.002;2023-07-13T00:21:48;98538.64;;;21.66;84.53
34921;BME280;21128;50.016;20.002;2023-07-13T00:24:17;98545.53;;;21.55;84.23
34921;BME280;21128;50.016;20.002;2023-07-13T00:26:49;98545.81;;;21.47;85.52
34921;BME280;21128;50.016;20.002;2023-07-13T00:29:16;98542.82;;;21.37;86.33
34921;BME280;21128;50.016;20.002;2023-07-13T00:31:44;98533.45;;;21.28;87.77
34921;BME280;21128;50.016;20.002;2023-07-13T00:34:11;98545.19;;;21.20;87.68
34921;BME280;21128;50.016;20.002;2023-07-13T00:36:38;98545.67;;;21.11;89.83
34921;BME280;21128;50.016;20.002;2023-07-13T00:39:05;98539.55;;;21.03;90.05
34921;BME280;21128;50.016;20.002;2023-07-13T00:41:33;98550.28;;;20.97;92.14
34921;BME280;21128;50.016;20.002;2023-07-13T00:44:00;98563.08;;;20.88;92.98
34921;BME280;21128;50.016;20.002;2023-07-13T00:46:32;98555.54;;;20.78;94.54
34921;BME280;21128;50.016;20.002;2023-07-13T00:49:02;98558.45;;;20.70;94.58
34921;BME280;21128;50.016;20.002;2023-07-13T00:51:53;98570.42;;;20.61;96.74
34921;BME280;21128;50.016;20.002;2023-07-13T00:54:32;98574.37;;;20.52;97.16
34921;BME280;21128;50.016;20.002;2023-07-13T00:57:03;98576.62;;;20.48;97.94
34921;BME280;21128;50.016;20.002;2023-07-13T00:59:31;98567.41;;;20.44;97.45
34921;BME280;21128;50.016;20.002;2023-07-13T01:01:59;98567.41;;;20.44;98.11
34921;BME280;21128;50.016;20.002;2023-07-13T01:04:26;98577.05;;;20.45;98.49
34921;BME280;21128;50.016;20.002;2023-07-13T01:06:53;98576.84;;;20.47;98.11
34921;BME280;21128;50.016;20.002;2023-07-13T01:09:21;98575.80;;;20.48;98.41
34921;BME280;21128;50.016;20.002;2023-07-13T01:11:48;98576.62;;;20.48;98.65
34921;BME280;21128;50.016;20.002;2023-07-13T01:14:16;98573.57;;;20.45;99.30
34921;BME280;21128;50.016;20.002;2023-07-13T01:16:45;98580.91;;;20.43;99.55
34921;BME280;21128;50.016;20.002;2023-07-13T01:22:14;98580.96;;;20.36;100.00
34921;BME280;21128;50.016;20.002;2023-07-13T01:24:44;98583.22;;;20.33;100.00
34921;BME280;21128;50.016;20.002;2023-07-13T01:27:15;98573.80;;;20.30;100.00
34921;BME280;21128;50.016;20.002;2023-07-13T01:29:44;98568.07;;;20.27;100.00
34921;BME280;21128;50.016;20.002;2023-07-13T01:32:22;98546.91;;;20.25;100.00
34921;BME280;21128;50.016;20.002;2023-07-13T01:34:51;98543.05;;;20.21;100.00
34921;BME280;21128;50.016;20.002;2023-07-13T01:37:21;98546.75;;;20.20;100.00
34921;BME280;21128;50.016;20.002;2023-07-13T01:39:48;98524.38;;;20.21;100.00
34921;BME280;21128;50.016;20.002;2023-07-13T01:42:15;98522.30;;;20.23;100.00
34921;BME280;21128;50.016;20.002;2023-07-13T01:44:42;98536.24;;;20.25;100.00
34921;BME280;21128;50.016;20.002;2023-07-13T01:47:10;98537.06;;;20.25;100.00
34921;BME280;21128;50.016;20.002;2023-07-13T01:49:37;98544.66;;;20.29;100.00
34921;BME280;21128;50.016;20.002;2023-07-13T01:52:04;98525.17;;;20.28;100.00
34921;BME280;21128;50.016;20.002;2023-07-13T01:54:32;98530.91;;;20.25;100.00
34921;BME280;21128;50.016;20.002;2023-07-13T01:57:00;98528.87;;;20.27;100.00
34921;BME280;21128;50.016;20.002;2023-07-13T01:59:27;98522.50;;;20.28;100.00
34921;BME280;21128;50.016;20.002;2023-07-13T02:01:54;98500.53;;;20.26;100.00
34921;BME280;21128;50.016;20.002;2023-07-13T02:04:21;98487.46;;;20.18;100.00
34921;BME280;21128;50.016;20.002;2023-07-13T02:06:48;98473.73;;;20.08;100.00
34921;BME280;21128;50.016;20.002;2023-07-13T02:09:15;98466.60;;;20.02;100.00
34921;BME280;21128;50.016;20.002;2023-07-13T02:11:42;98465.38;;;19.98;100.00
34921;BME280;21128;50.016;20.002;2023-07-13T02:14:09;98453.51;;;19.93;100.00
34921;BME280;21128;50.016;20.002;2023-07-13T02:16:36;98446.94;;;19.89;100.00
34921;BME280;21128;50.016;20.002;2023-07-13T02:19:03;98460.11;;;19.84;100.00
34921;BME280;21128;50.016;20.002;2023-07-13T02:21:30;98470.14;;;19.82;100.00
34921;BME280;21128;50.016;20.002;2023-07-13T02:23:57;98465.23;;;19.79;100.00
34921;BME280;21128;50.016;20.002;2023-07-13T02:26:24;98457.67;;;19.76;100.00
34921;BME280;21128;50.016;20.002;2023-07-13T02:28:52;98454.37;;;19.74;100.00
34921;BME280;21128;50.016;20.002;2023-07-13T02:31:19;98459.92;;;19.73;100.00
34921;BME280;21128;50.016;20.002;2023-07-13T02:33:46;98463.83;;;19.70;100.00
34921;BME280;21128;50.016;20.002;2023-07-13T02:36:14;98462.80;;;19.71;100.00
34921;BME280;21128;50.016;20.002;2023-07-13T02:38:42;98464.44;;;19.72;100.00
34921;BME280;21128;50.016;20.002;2023-07-13T02:41:09;98472.64;;;19.71;100.00
34921;BME280;21128;50.016;20.002;2023-07-13T02:43:37;98469.37;;;19.68;100.00
34921;BME280;21128;50.016;20.002;2023-07-13T02:46:05;98465.27;;;19.66;100.00
34921;BME280;21128;50.016;20.002;2023-07-13T02:48:34;98468.96;;;19.65;100.00
34921;BME280;21128;50.016;20.002;2023-07-13T02:51:01;98465.48;;;19.64;100.00
34921;BME280;21128;50.016;20.002;2023-07-13T02:53:29;98477.39;;;19.62;100.00
34921;BME280;21128;50.016;20.002;2023-07-13T02:55:56;98469.78;;;19.59;100.00
34921;BME280;21128;50.016;20.002;2023-07-13T02:58:24;98472.84;;;19.56;100.00
34921;BME280;21128;50.016;20.002;2023-07-13T03:00:51;98468.77;;;19.53;100.00
34921;BME280;21128;50.016;20.002;2023-07-13T03:03:18;98473.06;;;19.54;100.00
34921;BME280;21128;50.016;20.002;2023-07-13T03:05:45;98467.95;;;19.53;100.00
34921;BME280;21128;50.016;20.002;2023-07-13T03:08:16;98470.01;;;19.51;100.00
34921;BME280;21128;50.016;20.002;2023-07-13T03:10:44;98463.02;;;19.50;100.00
34921;BME280;21128;50.016;20.002;2023-07-13T03:13:11;98466.11;;;19.47;100.00
34921;BME280;21128;50.016;20.002;2023-07-13T03:15:38;98475.34;;;19.51;100.00
34921;BME280;21128;50.016;20.002;2023-07-13T03:18:05;98491.11;;;19.52;100.00
34921;BME280;21128;50.016;20.002;2023-07-13T03:20:35;98489.05;;;19.54;100.00
34921;BME280;21128;50.016;20.002;2023-07-13T03:23:03;98494.59;;;19.53;100.00
34921;BME280;21128;50.016;20.002;2023-07-13T03:25:30;98489.66;;;19.50;100.00
34921;BME280;21128;50.016;20.002;2023-07-13T03:27:57;98494.98;;;19.50;100.00
34921;BME280;21128;50.016;20.002;2023-07-13T03:30:24;98496.44;;;19.52;100.00
34921;BME280;21128;50.016;20.002;2023-07-13T03:32:51;98496.25;;;19.60;100.00
34921;BME280;21128;50.016;20.002;2023-07-13T03:35:18;98503.39;;;19.66;100.00
34921;BME280;21128;50.016;20.002;2023-07-13T03:37:45;98510.39;;;19.67;100.00
34921;BME280;21128;50.016;20.002;2023-07-13T03:40:12;98510.99;;;19.70;100.00
34921;BME280;21128;50.016;20.002;2023-07-13T03:42:40;98505.23;;;19.73;100.00
34921;BME280;21128;50.016;20.002;2023-07-13T03:45:07;98508.72;;;19.73;100.00
34921;BME280;21128;50.016;20.002;2023-07-13T03:47:35;98507.47;;;19.76;100.00
34921;BME280;21128;50.016;20.002;2023-07-13T03:50:02;98501.95;;;19.77;100.00
34921;BME280;21128;50.016;20.002;2023-07-13T03:52:30;98495.59;;;19.78;100.00
34921;BME280;21128;50.016;20.002;2023-07-13T03:54:57;98476.94;;;19.78;100.00
34921;BME280;21128;50.016;20.002;2023-07-13T03:57:24;98467.91;;;19.79;100.00
34921;BME280;21128;50.016;20.002;2023-07-13T03:59:50;98476.50;;;19.81;100.00
34921;BME280;21128;50.016;20.002;2023-07-13T04:02:18;98478.12;;;19.89;100.00
34921;BME280;21128;50.016;20.002;2023-07-13T04:04:45;98485.29;;;19.95;100.00
34921;BME280;21128;50.016;20.002;2023-07-13T04:07:12;98491.22;;;19.97;100.00
34921;BME280;21128;50.016;20.002;2023-07-13T04:09:39;98496.94;;;20.01;100.00
34921;BME280;21128;50.016;20.002;2023-07-13T04:12:07;98502.48;;;19.99;100.00
34921;BME280;21128;50.016;20.002;2023-07-13T04:14:34;98498.41;;;19.96;100.00
34921;BME280;21128;50.016;20.002;2023-07-13T04:17:01;98507.00;;;19.99;100.00
34921;BME280;21128;50.016;20.002;2023-07-13T04:19:28;98516.84;;;20.05;100.00
34921;BME280;21128;50.016;20.002;2023-07-13T04:21:55;98529.74;;;20.08;100.00
34921;BME280;21128;50.016;20.002;2023-07-13T04:24:25;98529.72;;;20.14;100.00
34921;BME280;21128;50.016;20.002;2023-07-13T04:26:52;98523.13;;;20.23;100.00
34921;BME280;21128;50.016;20.002;2023-07-13T04:29:20;98515.29;;;20.35;100.00
34921;BME280;21128;50.016;20.002;2023-07-13T04:31:47;98514.20;;;20.49;100.00
34921;BME280;21128;50.016;20.002;2023-07-13T04:34:14;98520.30;;;20.63;100.00
34921;BME280;21128;50.016;20.002;2023-07-13T04:36:41;98523.72;;;20.77;100.00
34921;BME280;21128;50.016;20.002;2023-07-13T04:39:10;98526.25;;;20.97;100.00
34921;BME280;21128;50.016;20.002;2023-07-13T04:41:38;98525.05;;;21.18;100.00
34921;BME280;21128;50.016;20.002;2023-07-13T04:44:05;98526.61;;;21.32;100.00
34921;BME280;21128;50.016;20.002;2023-07-13T04:46:32;98527.16;;;21.41;100.00
34921;BME280;21128;50.016;20.002;2023-07-13T04:48:59;98537.63;;;21.42;100.00
34921;BME280;21128;50.016;20.002;2023-07-13T04:51:27;98527.69;;;21.49;100.00
34921;BME280;21128;50.016;20.002;2023-07-13T04:53:54;98523.80;;;21.70;100.00
34921;BME280;21128;50.016;20.002;2023-07-13T04:56:21;98519.88;;;21.91;100.00
34921;BME280;21128;50.016;20.002;2023-07-13T04:58:48;98513.50;;;22.10;100.00
34921;BME280;21128;50.016;20.002;2023-07-13T05:01:15;98508.27;;;22.34;100.00
34921;BME280;21128;50.016;20.002;2023-07-13T05:03:42;98506.75;;;22.56;100.00
34921;BME280;21128;50.016;20.002;2023-07-13T05:06:09;98497.02;;;22.73;100.00
34921;BME280;21128;50.016;20.002;2023-07-13T05:08:38;98485.27;;;22.74;100.00
34921;BME280;21128;50.016;20.002;2023-07-13T05:11:06;98492.97;;;22.83;100.00
34921;BME280;21128;50.016;20.002;2023-07-13T05:13:34;98490.95;;;22.96;100.00
34921;BME280;21128;50.016;20.002;2023-07-13T05:16:03;98486.64;;;23.07;100.00
34921;BME280;21128;50.016;20.002;2023-07-13T05:18:31;98496.31;;;23.08;98.84
34921;BME280;21128;50.016;20.002;2023-07-13T05:21:04;98492.72;;;23.14;98.70
34921;BME280;21128;50.016;20.002;2023-07-13T05:23:35;98494.95;;;23.29;97.91
34921;BME280;21128;50.016;20.002;2023-07-13T05:26:02;98492.39;;;23.46;97.20
34921;BME280;21128;50.016;20.002;2023-07-13T05:28:31;98493.67;;;23.55;95.81
34921;BME280;21128;50.016;20.002;2023-07-13T05:30:58;98497.18;;;23.67;95.70
34921;BME280;21128;50.016;20.002;2023-07-13T05:33:26;98502.40;;;23.85;95.86
34921;BME280;21128;50.016;20.002;2023-07-13T05:35:53;98500.61;;;24.03;95.54
34921;BME280;21128;50.016;20.002;2023-07-13T05:38:20;98501.79;;;24.07;94.77
34921;BME280;21128;50.016;20.002;2023-07-13T05:40:47;98501.42;;;24.03;94.19
34921;BME280;21128;50.016;20.002;2023-07-13T05:43:14;98495.25;;;24.03;93.83
34921;BME280;21128;50.016;20.002;2023-07-13T05:45:42;98495.25;;;24.03;93.59
34921;BME280;21128;50.016;20.002;2023-07-13T05:48:11;98496.06;;;24.03;92.95
34921;BME280;21128;50.016;20.002;2023-07-13T05:50:38;98491.05;;;24.07;93.48
34921;BME280;21128;50.016;20.002;2023-07-13T05:53:06;98485.44;;;24.08;93.11
34921;BME280;21128;50.016;20.002;2023-07-13T05:55:33;98484.87;;;24.06;92.51
34921;BME280;21128;50.016;20.002;2023-07-13T05:58:00;98491.51;;;24.04;92.52
34921;BME280;21128;50.016;20.002;2023-07-13T06:00:28;98499.56;;;24.04;92.31
34921;BME280;21128;50.016;20.002;2023-07-13T06:02:56;98501.91;;;24.00;91.87
34921;BME280;21128;50.016;20.002;2023-07-13T06:05:25;98500.17;;;23.94;92.16
34921;BME280;21128;50.016;20.002;2023-07-13T06:07:53;98504.03;;;23.98;92.43
34921;BME280;21128;50.016;20.002;2023-07-13T06:10:20;98497.93;;;24.03;92.26
34921;BME280;21128;50.016;20.002;2023-07-13T06:12:47;98503.78;;;24.00;92.19
34921;BME280;21128;50.016;20.002;2023-07-13T06:15:14;98499.35;;;23.94;91.93
34921;BME280;21128;50.016;20.002;2023-07-13T06:17:41;98498.66;;;23.86;92.05
34921;BME280;21128;50.016;20.002;2023-07-13T06:20:08;98497.52;;;23.82;91.96
34921;BME280;21128;50.016;20.002;2023-07-13T06:22:35;98488.74;;;23.87;92.10
34921;BME280;21128;50.016;20.002;2023-07-13T06:25:02;98487.02;;;23.81;91.94
34921;BME280;21128;50.016;20.002;2023-07-13T06:27:30;98486.66;;;23.89;92.59
34921;BME280;21128;50.016;20.002;2023-07-13T06:29:57;98479.75;;;24.05;92.88
34921;BME280;21128;50.016;20.002;2023-07-13T06:32:24;98483.52;;;24.21;92.76
34921;BME280;21128;50.016;20.002;2023-07-13T06:34:51;98482.58;;;24.27;92.24
34921;BME280;21128;50.016;20.002;2023-07-13T06:37:20;98481.52;;;24.28;91.98
34921;BME280;21128;50.016;20.002;2023-07-13T06:39:47;98484.20;;;24.28;91.45
34921;BME280;21128;50.016;20.002;2023-07-13T06:42:16;98483.29;;;24.34;91.72
34921;BME280;21128;50.016;20.002;2023-07-13T06:44:43;98482.34;;;24.40;91.74
34921;BME280;21128;50.016;20.002;2023-07-13T06:47:10;98493.75;;;24.47;91.65
34921;BME280;21128;50.016;20.002;2023-07-13T06:49:37;98490.09;;;24.53;90.99
34921;BME280;21128;50.016;20.002;2023-07-13T06:52:04;98499.69;;;24.49;90.01
34921;BME280;21128;50.016;20.002;2023-07-13T06:54:31;98508.00;;;24.48;89.69
34921;BME280;21128;50.016;20.002;2023-07-13T06:56:58;98499.63;;;24.61;89.96
34921;BME280;21128;50.016;20.002;2023-07-13T06:59:25;98507.41;;;24.74;90.20
34921;BME280;21128;50.016;20.002;2023-07-13T07:01:52;98506.62;;;24.90;89.43
34921;BME280;21128;50.016;20.002;2023-07-13T07:04:19;98512.16;;;25.01;88.32
34921;BME280;21128;50.016;20.002;2023-07-13T07:06:46;98513.73;;;25.13;87.81
34921;BME280;21128;50.016;20.002;2023-07-13T07:09:13;98519.05;;;25.25;86.42
34921;BME280;21128;50.016;20.002;2023-07-13T07:11:43;98508.45;;;25.35;85.81
34921;BME280;21128;50.016;20.002;2023-07-13T07:14:10;98504.36;;;25.49;85.58
34921;BME280;21128;50.016;20.002;2023-07-13T07:16:37;98500.75;;;25.61;85.61
34921;BME280;21128;50.016;20.002;2023-07-13T07:19:04;98506.05;;;25.72;85.39
34921;BME280;21128;50.016;20.002;2023-07-13T07:21:30;98495.67;;;25.81;84.86
34921;BME280;21128;50.016;20.002;2023-07-13T07:23:58;98496.02;;;25.68;82.83
34921;BME280;21128;50.016;20.002;2023-07-13T07:26:26;98501.98;;;25.53;82.07
34921;BME280;21128;50.016;20.002;2023-07-13T07:28:53;98502.96;;;25.47;82.87
34921;BME280;21128;50.016;20.002;2023-07-13T07:31:20;98502.15;;;25.46;82.90
34921;BME280;21128;50.016;20.002;2023-07-13T07:33:48;98491.73;;;25.50;82.68
34921;BME280;21128;50.016;20.002;2023-07-13T07:36:16;98493.44;;;25.56;82.90
34921;BME280;21128;50.016;20.002;2023-07-13T07:38:44;98486.73;;;25.59;82.79
34921;BME280;21128;50.016;20.002;2023-07-13T07:41:12;98484.91;;;25.64;82.83
34921;BME280;21128;50.016;20.002;2023-07-13T07:43:39;98486.79;;;25.64;82.58
34921;BME280;21128;50.016;20.002;2023-07-13T07:46:06;98482.56;;;25.68;82.25
34921;BME280;21128;50.016;20.002;2023-07-13T07:48:33;98476.61;;;25.83;82.37
34921;BME280;21128;50.016;20.002;2023-07-13T07:51:01;98478.35;;;25.94;81.72
34921;BME280;21128;50.016;20.002;2023-07-13T07:53:28;98471.16;;;25.99;82.15
34921;BME280;21128;50.016;20.002;2023-07-13T07:55:55;98483.60;;;26.05;81.13
34921;BME280;21128;50.016;20.002;2023-07-13T07:58:22;98481.42;;;26.02;80.62
34921;BME280;21128;50.016;20.002;2023-07-13T08:00:49;98480.86;;;26.00;80.96
34921;BME280;21128;50.016;20.002;2023-07-13T08:03:16;98486.88;;;26.07;81.19
34921;BME280;21128;50.016;20.002;2023-07-13T08:05:43;98500.09;;;26.09;80.24
34921;BME280;21128;50.016;20.002;2023-07-13T08:08:10;98493.33;;;26.06;80.27
34921;BME280;21128;50.016;20.002;2023-07-13T08:10:37;98490.69;;;26.12;80.59
34921;BME280;21128;50.016;20.002;2023-07-13T08:13:04;98491.87;;;26.21;81.41
34921;BME280;21128;50.016;20.002;2023-07-13T08:15:31;98493.67;;;26.37;80.80
34921;BME280;21128;50.016;20.002;2023-07-13T08:17:58;98482.02;;;26.53;80.90
34921;BME280;21128;50.016;20.002;2023-07-13T08:20:25;98483.60;;;26.76;80.54
34921;BME280;21128;50.016;20.002;2023-07-13T08:22:52;98485.71;;;27.01;80.39
34921;BME280;21128;50.016;20.002;2023-07-13T08:25:19;98478.06;;;27.20;79.76
34921;BME280;21128;50.016;20.002;2023-07-13T08:27:47;98487.30;;;27.29;78.77
34921;BME280;21128;50.016;20.002;2023-07-13T08:30:14;98491.92;;;27.34;78.36
34921;BME280;21128;50.016;20.002;2023-07-13T08:32:41;98482.76;;;27.35;77.97
34921;BME280;21128;50.016;20.002;2023-07-13T08:35:08;98479.27;;;27.39;77.71
34921;BME280;21128;50.016;20.002;2023-07-13T08:37:35;98484.70;;;27.44;76.43
34921;BME280;21128;50.016;20.002;2023-07-13T08:40:02;98479.80;;;27.36;75.88
34921;BME280;21128;50.016;20.002;2023-07-13T08:42:46;98480.33;;;27.33;75.72
34921;BME280;21128;50.016;20.002;2023-07-13T08:48:04;98485.13;;;27.26;74.08
34921;BME280;21128;50.016;20.002;2023-07-13T08:50:42;98480.58;;;27.00;73.27
34921;BME280;21128;50.016;20.002;2023-07-13T08:53:15;98470.94;;;26.77;73.56
34921;BME280;21128;50.016;20.002;2023-07-13T08:55:44;98465.34;;;26.56;73.72
34921;BME280;21128;50.016;20.002;2023-07-13T08:58:13;98471.44;;;26.47;73.99
34921;BME280;21128;50.016;20.002;2023-07-13T09:00:52;98458.17;;;26.40;74.43
34921;BME280;21128;50.016;20.002;2023-07-13T09:03:30;98447.78;;;26.49;74.30
34921;BME280;21128;50.016;20.002;2023-07-13T09:06:02;98447.09;;;26.63;74.48
34921;BME280;21128;50.016;20.002;2023-07-13T09:11:46;98437.47;;;26.73;74.15
34921;BME280;21128;50.016;20.002;2023-07-13T09:16:54;98434.95;;;26.61;73.95
34921;BME280;21128;50.016;20.002;2023-07-13T09:19:28;98436.51;;;26.57;73.64
34921;BME280;21128;50.016;20.002;2023-07-13T09:21:55;98438.10;;;26.53;73.52
34921;BME280;21128;50.016;20.002;2023-07-13T09:24:36;98440.19;;;26.46;73.59
34921;BME280;21128;50.016;20.002;2023-07-13T09:27:32;98439.11;;;26.47;74.12
34921;BME280;21128;50.016;20.002;2023-07-13T09:30:23;98438.02;;;26.43;73.45
34921;BME280;21128;50.016;20.002;2023-07-13T09:32:53;98434.61;;;26.30;73.33
34921;BME280;21128;50.016;20.002;2023-07-13T09:35:23;98442.28;;;26.17;73.36
34921;BME280;21128;50.016;20.002;2023-07-13T09:37:56;98442.62;;;25.98;73.03
34921;BME280;21128;50.016;20.002;2023-07-13T09:40:30;98442.10;;;25.79;73.46
34921;BME280;21128;50.016;20.002;2023-07-13T09:42:59;98439.25;;;25.69;74.01
34921;BME280;21128;50.016;20.002;2023-07-13T09:45:29;98445.31;;;25.60;73.93
34921;BME280;21128;50.016;20.002;2023-07-13T09:48:05;98447.28;;;25.47;74.38
34921;BME280;21128;50.016;20.002;2023-07-13T09:50:32;98449.59;;;25.39;74.63
34921;BME280;21128;50.016;20.002;2023-07-13T09:53:01;98448.72;;;25.33;75.03
34921;BME280;21128;50.016;20.002;2023-07-13T09:55:32;98448.63;;;25.28;75.03
34921;BME280;21128;50.016;20.002;2023-07-13T09:58:19;98445.89;;;25.23;75.27
34921;BME280;21128;50.016;20.002;2023-07-13T10:00:58;98451.17;;;25.18;74.96
34921;BME280;21128;50.016;20.002;2023-07-13T10:03:31;98453.05;;;25.17;75.11
34921;BME280;21128;50.016;20.002;2023-07-13T10:06:18;98458.09;;;25.14;74.95
34921;BME280;21128;50.016;20.002;2023-07-13T10:08:46;98449.28;;;25.02;75.42
34921;BME280;21128;50.016;20.002;2023-07-13T10:11:22;98453.74;;;24.96;75.59
34921;BME280;21128;50.016;20.002;2023-07-13T10:13:58;98454.24;;;24.93;75.99
34921;BME280;21128;50.016;20.002;2023-07-13T10:16:31;98457.43;;;24.90;76.34
34921;BME280;21128;50.016;20.002;2023-07-13T10:19:06;98457.58;;;24.83;76.40
34921;BME280;21128;50.016;20.002;2023-07-13T10:21:52;98466.54;;;24.72;76.02
34921;BME280;21128;50.016;20.002;2023-07-13T10:24:25;98467.64;;;24.59;76.44
34921;BME280;21128;50.016;20.002;2023-07-13T10:26:54;98468.98;;;24.45;76.66
34921;BME280;21128;50.016;20.002;2023-07-13T10:29:26;98474.03;;;24.30;77.31
34921;BME280;21128;50.016;20.002;2023-07-13T10:31:54;98473.03;;;24.19;77.60
34921;BME280;21128;50.016;20.002;2023-07-13T10:34:24;98482.88;;;24.02;78.41
34921;BME280;21128;50.016;20.002;2023-07-13T10:36:52;98482.69;;;23.92;79.27
34921;BME280;21128;50.016;20.002;2023-07-13T10:39:27;98481.30;;;23.77;80.27
34921;BME280;21128;50.016;20.002;2023-07-13T10:42:00;98501.84;;;23.60;81.52
34921;BME280;21128;50.016;20.002;2023-07-13T10:44:31;98509.63;;;23.50;82.67
34921;BME280;21128;50.016;20.002;2023-07-13T10:49:28;98513.72;;;23.29;85.62
34921;BME280;21128;50.016;20.002;2023-07-13T10:51:55;98525.98;;;22.95;86.31
34921;BME280;21128;50.016;20.002;2023-07-13T10:59:41;98529.21;;;21.63;91.65
34921;BME280;21128;50.016;20.002;2023-07-13T11:02:13;98530.94;;;21.26;92.88
34921;BME280;21128;50.016;20.002;2023-07-13T11:04:45;98540.04;;;20.94;94.17
34921;BME280;21128;50.016;20.002;2023-07-13T11:07:22;98548.59;;;20.71;96.17
34921;BME280;21128;50.016;20.002;2023-07-13T11:09:53;98540.67;;;20.51;96.52
34921;BME280;21128;50.016;20.002;2023-07-13T11:17:34;98555.81;;;20.06;97.85
34921;BME280;21128;50.016;20.002;2023-07-13T11:22:53;98569.14;;;20.06;99.53
34921;BME280;21128;50.016;20.002;2023-07-13T11:25:35;98581.23;;;20.08;100.00
34921;BME280;21128;50.016;20.002;2023-07-13T11:30:49;98604.41;;;20.14;100.00
34921;BME280;21128;50.016;20.002;2023-07-13T11:33:25;98617.16;;;20.06;100.00
34921;BME280;21128;50.016;20.002;2023-07-13T11:36:18;98622.28;;;20.01;100.00
34921;BME280;21128;50.016;20.002;2023-07-13T11:39:02;98644.86;;;19.98;100.00
34921;BME280;21128;50.016;20.002;2023-07-13T11:44:14;98688.37;;;19.85;100.00
34921;BME280;21128;50.016;20.002;2023-07-13T11:46:47;98699.43;;;19.69;100.00
34921;BME280;21128;50.016;20.002;2023-07-13T11:49:16;98682.75;;;19.47;100.00
34921;BME280;21128;50.016;20.002;2023-07-13T11:51:44;98696.61;;;19.16;100.00
34921;BME280;21128;50.016;20.002;2023-07-13T11:56:51;98717.36;;;18.45;100.00
34921;BME280;21128;50.016;20.002;2023-07-13T11:59:18;98705.78;;;18.24;100.00
34921;BME280;21128;50.016;20.002;2023-07-13T12:01:51;98715.03;;;18.07;100.00
34921;BME280;21128;50.016;20.002;2023-07-13T12:04:28;98712.85;;;17.89;100.00
34921;BME280;21128;50.016;20.002;2023-07-13T12:07:15;98717.05;;;17.77;100.00
34921;BME280;21128;50.016;20.002;2023-07-13T12:09:43;98724.66;;;17.65;100.00
34921;BME280;21128;50.016;20.002;2023-07-13T12:12:14;98714.36;;;17.56;100.00
34921;BME280;21128;50.016;20.002;2023-07-13T12:14:44;98712.22;;;17.44;100.00
34921;BME280;21128;50.016;20.002;2023-07-13T12:17:18;98728.08;;;17.38;100.00
34921;BME280;21128;50.016;20.002;2023-07-13T12:19:47;98726.00;;;17.33;100.00
34921;BME280;21128;50.016;20.002;2023-07-13T12:22:17;98728.81;;;17.32;100.00
34921;BME280;21128;50.016;20.002;2023-07-13T12:24:45;98733.31;;;17.31;100.00
34921;BME280;21128;50.016;20.002;2023-07-13T12:27:20;98736.78;;;17.32;100.00
34921;BME280;21128;50.016;20.002;2023-07-13T12:29:58;98742.75;;;17.34;100.00
34921;BME280;21128;50.016;20.002;2023-07-13T12:32:27;98739.09;;;17.35;100.00
34921;BME280;21128;50.016;20.002;2023-07-13T12:34:57;98740.34;;;17.39;100.00
34921;BME280;21128;50.016;20.002;2023-07-13T12:37:34;98740.03;;;17.49;100.00
34921;BME280;21128;50.016;20.002;2023-07-13T12:40:03;98748.53;;;17.59;100.00
34921;BME280;21128;50.016;20.002;2023-07-13T12:42:32;98735.59;;;17.70;100.00
34921;BME280;21128;50.016;20.002;2023-07-13T12:45:22;98735.46;;;17.79;100.00
34921;BME280;21128;50.016;20.002;2023-07-13T12:47:54;98727.36;;;17.87;100.00
34921;BME280;21128;50.016;20.002;2023-07-13T12:50:24;98733.56;;;17.94;100.00
34921;BME280;21128;50.016;20.002;2023-07-13T12:53:01;98721.70;;;17.96;100.00
34921;BME280;21128;50.016;20.002;2023-07-13T12:55:30;98718.03;;;17.97;100.00
34921;BME280;21128;50.016;20.002;2023-07-13T12:58:03;98716.03;;;17.99;100.00
34921;BME280;21128;50.016;20.002;2023-07-13T13:00:40;98714.81;;;18.02;100.00
34921;BME280;21128;50.016;20.002;2023-07-13T13:03:26;98704.59;;;18.06;100.00
34921;BME280;21128;50.016;20.002;2023-07-13T13:08:47;98709.16;;;18.12;100.00
34921;BME280;21128;50.016;20.002;2023-07-13T13:11:19;98703.44;;;18.15;100.00
34921;BME280;21128;50.016;20.002;2023-07-13T13:13:46;98715.56;;;18.24;100.00
34921;BME280;21128;50.016;20.002;2023-07-13T13:16:26;98710.10;;;18.32;100.00
34921;BME280;21128;50.016;20.002;2023-07-13T13:18:56;98723.08;;;18.42;100.00
34921;BME280;21128;50.016;20.002;2023-07-13T13:21:24;98717.98;;;18.47;100.00
34921;BME280;21128;50.016;20.002;2023-07-13T13:23:52;98710.86;;;18.54;100.00
34921;BME280;21128;50.016;20.002;2023-07-13T13:26:21;98711.68;;;18.54;100.00
34921;BME280;21128;50.016;20.002;2023-07-13T13:28:48;98710.66;;;18.55;100.00
34921;BME280;21128;50.016;20.002;2023-07-13T13:31:16;98714.96;;;18.56;100.00
34921;BME280;21128;50.016;20.002;2023-07-13T13:33:44;98720.93;;;18.59;100.00
34921;BME280;21128;50.016;20.002;2023-07-13T13:36:17;98715.20;;;18.62;100.00